sensor_id;sensor_type;location;lat;lon;timestamp;temperature;humidity
7562;DHT22;3822;48.784;9.174;2023-06-14T00:00:33;23.00;35.70
7562;DHT22;3822;48.784;9.174;2023-06-14T00:03:00;22.90;35.70
7562;DHT22;3822;48.784;9.174;2023-06-14T00:05:32;22.90;35.70
7562;DHT22;3822;48.784;9.174;2023-06-14T00:08:04;22.80;35.70
7562;DHT22;3822;48.784;9.174;2023-06-14T00:10:33;22.80;35.80
7562;DHT22;3822;48.784;9.174;2023-06-14T00:13:01;22.70;35.80
7562;DHT22;3822;48.784;9.174;2023-06-14T00:15:33;22.70;36.00
7562;DHT22;3822;48.784;9.174;2023-06-14T00:17:59;22.60;36.10
7562;DHT22;3822;48.784;9.174;2023-06-14T00:20:29;22.60;36.20
7562;DHT22;3822;48.784;9.174;2023-06-14T00:22:59;22.50;36.20
7562;DHT22;3822;48.784;9.174;2023-06-14T00:25:26;22.50;36.50
7562;DHT22;3822;48.784;9.174;2023-06-14T00:27:53;22.50;36.60
7562;DHT22;3822;48.784;9.174;2023-06-14T00:30:20;22.40;36.70
7562;DHT22;3822;48.784;9.174;2023-06-14T00:32:48;22.40;36.90
7562;DHT22;3822;48.784;9.174;2023-06-14T00:35:15;22.40;37.00
7562;DHT22;3822;48.784;9.174;2023-06-14T00:37:42;22.30;37.00
7562;DHT22;3822;48.784;9.174;2023-06-14T00:40:08;22.30;37.30
7562;DHT22;3822;48.784;9.174;2023-06-14T00:42:34;22.30;37.40
7562;DHT22;3822;48.784;9.174;2023-06-14T00:45:01;22.30;37.60
7562;DHT22;3822;48.784;9.174;2023-06-14T00:47:27;22.20;37.60
7562;DHT22;3822;48.784;9.174;2023-06-14T00:49:53;22.20;37.70
7562;DHT22;3822;48.784;9.174;2023-06-14T00:52:22;22.20;37.80
7562;DHT22;3822;48.784;9.174;2023-06-14T00:54:50;22.10;37.70
7562;DHT22;3822;48.784;9.174;2023-06-14T00:57:16;22.10;37.80
7562;DHT22;3822;48.784;9.174;2023-06-14T00:59:46;22.00;37.90
7562;DHT22;3822;48.784;9.174;2023-06-14T01:02:13;22.00;38.10
7562;DHT22;3822;48.784;9.174;2023-06-14T01:04:46;22.00;38.20
7562;DHT22;3822;48.784;9.174;2023-06-14T01:15:24;21.90;38.80
7562;DHT22;3822;48.784;9.174;2023-06-14T01:17:50;21.60;38.70
7562;DHT22;3822;48.784;9.174;2023-06-14T01:20:21;21.80;39.00
7562;DHT22;3822;48.784;9.174;2023-06-14T01:22:57;21.80;39.20
7562;DHT22;3822;48.784;9.174;2023-06-14T01:25:23;21.70;39.30
7562;DHT22;3822;48.784;9.174;2023-06-14T01:28:00;21.70;39.40
7562;DHT22;3822;48.784;9.174;2023-06-14T01:30:29;21.70;39.50
7562;DHT22;3822;48.784;9.174;2023-06-14T01:32:59;21.60;39.60
7562;DHT22;3822;48.784;9.174;2023-06-14T01:35:25;21.60;39.70
7562;DHT22;3822;48.784;9.174;2023-06-14T01:37:52;21.60;40.60
7562;DHT22;3822;48.784;9.174;2023-06-14T01:40:19;21.50;39.90
7562;DHT22;3822;48.784;9.174;2023-06-14T01:42:49;21.50;40.00
7562;DHT22;3822;48.784;9.174;2023-06-14T01:45:16;21.50;40.10
7562;DHT22;3822;48.784;9.174;2023-06-14T01:47:43;21.40;40.10
7562;DHT22;3822;48.784;9.174;2023-06-14T01:50:10;21.40;40.10
7562;DHT22;3822;48.784;9.174;2023-06-14T01:52:37;21.30;40.10
7562;DHT22;3822;48.784;9.174;2023-06-14T01:55:05;21.30;40.20
7562;DHT22;3822;48.784;9.174;2023-06-14T01:57:32;21.30;40.30
7562;DHT22;3822;48.784;9.174;2023-06-14T01:59:58;21.20;40.30
7562;DHT22;3822;48.784;9.174;2023-06-14T02:02:24;21.20;40.40
7562;DHT22;3822;48.784;9.174;2023-06-14T02:04:51;21.20;40.60
7562;DHT22;3822;48.784;9.174;2023-06-14T02:07:18;21.20;40.70
7562;DHT22;3822;48.784;9.174;2023-06-14T02:09:44;21.10;40.90
7562;DHT22;3822;48.784;9.174;2023-06-14T02:12:10;21.10;41.10
7562;DHT22;3822;48.784;9.174;2023-06-14T02:14:37;21.10;41.20
7562;DHT22;3822;48.784;9.174;2023-06-14T02:17:04;21.00;41.20
7562;DHT22;3822;48.784;9.174;2023-06-14T02:19:32;21.00;41.40
7562;DHT22;3822;48.784;9.174;2023-06-14T02:21:59;21.00;41.50
7562;DHT22;3822;48.784;9.174;2023-06-14T02:24:25;21.00;41.60
7562;DHT22;3822;48.784;9.174;2023-06-14T02:26:51;21.00;41.70
7562;DHT22;3822;48.784;9.174;2023-06-14T02:29:18;20.90;41.70
7562;DHT22;3822;48.784;9.174;2023-06-14T02:31:45;20.90;41.70
7562;DHT22;3822;48.784;9.174;2023-06-14T02:34:16;20.90;41.80
7562;DHT22;3822;48.784;9.174;2023-06-14T02:36:46;20.80;41.80
7562;DHT22;3822;48.784;9.174;2023-06-14T02:39:18;20.80;41.80
7562;DHT22;3822;48.784;9.174;2023-06-14T02:41:46;20.80;41.90
7562;DHT22;3822;48.784;9.174;2023-06-14T02:44:13;20.70;41.80
7562;DHT22;3822;48.784;9.174;2023-06-14T02:46:39;20.70;41.90
7562;DHT22;3822;48.784;9.174;2023-06-14T02:49:06;20.60;41.80
7562;DHT22;3822;48.784;9.174;2023-06-14T02:51:32;20.60;42.60
7562;DHT22;3822;48.784;9.174;2023-06-14T02:54:00;20.60;41.90
7562;DHT22;3822;48.784;9.174;2023-06-14T02:56:28;20.50;41.90
7562;DHT22;3822;48.784;9.174;2023-06-14T02:58:55;20.50;42.00
7562;DHT22;3822;48.784;9.174;2023-06-14T03:01:21;20.50;42.10
7562;DHT22;3822;48.784;9.174;2023-06-14T03:03:49;20.40;42.10
7562;DHT22;3822;48.784;9.174;2023-06-14T03:06:15;20.40;42.90
7562;DHT22;3822;48.784;9.174;2023-06-14T03:08:42;20.40;42.30
7562;DHT22;3822;48.784;9.174;2023-06-14T03:11:09;20.40;42.40
7562;DHT22;3822;48.784;9.174;2023-06-14T03:13:36;20.30;42.40
7562;DHT22;3822;48.784;9.174;2023-06-14T03:16:03;20.30;42.50
7562;DHT22;3822;48.784;9.174;2023-06-14T03:18:30;20.30;42.60
7562;DHT22;3822;48.784;9.174;2023-06-14T03:20:59;20.20;42.70
7562;DHT22;3822;48.784;9.174;2023-06-14T03:23:25;20.30;42.80
7562;DHT22;3822;48.784;9.174;2023-06-14T03:25:51;20.20;42.80
7562;DHT22;3822;48.784;9.174;2023-06-14T03:28:17;20.20;42.90
7562;DHT22;3822;48.784;9.174;2023-06-14T03:30:44;20.20;43.00
7562;DHT22;3822;48.784;9.174;2023-06-14T03:33:10;20.20;43.20
7562;DHT22;3822;48.784;9.174;2023-06-14T03:35:43;20.10;43.20
7562;DHT22;3822;48.784;9.174;2023-06-14T03:38:09;20.10;43.40
7562;DHT22;3822;48.784;9.174;2023-06-14T03:40:35;20.10;43.40
7562;DHT22;3822;48.784;9.174;2023-06-14T03:43:04;20.10;43.50
7562;DHT22;3822;48.784;9.174;2023-06-14T03:45:33;20.00;43.50
7562;DHT22;3822;48.784;9.174;2023-06-14T03:47:59;20.00;43.60
7562;DHT22;3822;48.784;9.174;2023-06-14T03:50:26;20.00;43.60
7562;DHT22;3822;48.784;9.174;2023-06-14T03:52:55;20.00;43.70
7562;DHT22;3822;48.784;9.174;2023-06-14T03:55:21;20.00;43.70
7562;DHT22;3822;48.784;9.174;2023-06-14T03:57:51;20.00;43.70
7562;DHT22;3822;48.784;9.174;2023-06-14T04:00:17;19.90;43.70
7562;DHT22;3822;48.784;9.174;2023-06-14T04:02:44;20.00;43.80
7562;DHT22;3822;48.784;9.174;2023-06-14T04:05:10;20.00;44.00
7562;DHT22;3822;48.784;9.174;2023-06-14T04:07:36;20.00;44.10
7562;DHT22;3822;48.784;9.174;2023-06-14T04:10:06;20.00;44.20
7562;DHT22;3822;48.784;9.174;2023-06-14T04:12:34;20.00;44.30
7562;DHT22;3822;48.784;9.174;2023-06-14T04:15:00;20.00;44.30
7562;DHT22;3822;48.784;9.174;2023-06-14T04:17:26;20.00;44.30
7562;DHT22;3822;48.784;9.174;2023-06-14T04:19:53;20.00;44.40
7562;DHT22;3822;48.784;9.174;2023-06-14T04:22:19;20.00;44.30
7562;DHT22;3822;48.784;9.174;2023-06-14T04:24:45;20.00;44.20
7562;DHT22;3822;48.784;9.174;2023-06-14T04:27:12;19.90;44.20
7562;DHT22;3822;48.784;9.174;2023-06-14T04:29:40;19.90;44.30
7562;DHT22;3822;48.784;9.174;2023-06-14T04:32:09;19.90;44.40
7562;DHT22;3822;48.784;9.174;2023-06-14T04:34:38;19.80;44.40
7562;DHT22;3822;48.784;9.174;2023-06-14T04:37:05;19.80;44.40
7562;DHT22;3822;48.784;9.174;2023-06-14T04:39:36;19.80;44.50
7562;DHT22;3822;48.784;9.174;2023-06-14T04:42:03;19.80;44.60
7562;DHT22;3822;48.784;9.174;2023-06-14T04:44:30;19.80;44.60
7562;DHT22;3822;48.784;9.174;2023-06-14T04:46:57;19.80;44.60
7562;DHT22;3822;48.784;9.174;2023-06-14T04:49:24;19.80;44.50
7562;DHT22;3822;48.784;9.174;2023-06-14T04:51:53;19.80;44.50
7562;DHT22;3822;48.784;9.174;2023-06-14T04:54:27;19.80;44.60
7562;DHT22;3822;48.784;9.174;2023-06-14T04:56:53;19.80;44.50
7562;DHT22;3822;48.784;9.174;2023-06-14T04:59:21;19.70;44.40
7562;DHT22;3822;48.784;9.174;2023-06-14T05:01:49;19.80;44.40
7562;DHT22;3822;48.784;9.174;2023-06-14T05:04:16;19.80;44.80
7562;DHT22;3822;48.784;9.174;2023-06-14T05:06:43;19.80;44.80
7562;DHT22;3822;48.784;9.174;2023-06-14T05:09:20;19.80;45.00
7562;DHT22;3822;48.784;9.174;2023-06-14T05:11:49;19.80;45.60
7562;DHT22;3822;48.784;9.174;2023-06-14T05:14:16;19.70;45.70
7562;DHT22;3822;48.784;9.174;2023-06-14T05:16:43;19.80;46.50
7562;DHT22;3822;48.784;9.174;2023-06-14T05:19:09;19.80;46.50
7562;DHT22;3822;48.784;9.174;2023-06-14T05:21:36;19.80;46.10
7562;DHT22;3822;48.784;9.174;2023-06-14T05:24:03;19.80;46.20
7562;DHT22;3822;48.784;9.174;2023-06-14T05:26:29;19.80;46.00
7562;DHT22;3822;48.784;9.174;2023-06-14T05:28:56;19.80;45.90
7562;DHT22;3822;48.784;9.174;2023-06-14T05:31:23;19.90;46.00
7562;DHT22;3822;48.784;9.174;2023-06-14T05:33:50;19.90;45.80
7562;DHT22;3822;48.784;9.174;2023-06-14T05:36:16;20.00;45.70
7562;DHT22;3822;48.784;9.174;2023-06-14T05:38:43;20.00;45.60
7562;DHT22;3822;48.784;9.174;2023-06-14T05:41:09;20.00;45.60
7562;DHT22;3822;48.784;9.174;2023-06-14T05:43:35;20.00;45.50
7562;DHT22;3822;48.784;9.174;2023-06-14T05:46:01;20.10;45.60
7562;DHT22;3822;48.784;9.174;2023-06-14T05:48:28;20.10;45.40
7562;DHT22;3822;48.784;9.174;2023-06-14T05:50:54;20.10;45.40
7562;DHT22;3822;48.784;9.174;2023-06-14T05:53:21;20.10;45.40
7562;DHT22;3822;48.784;9.174;2023-06-14T05:55:49;20.10;45.30
7562;DHT22;3822;48.784;9.174;2023-06-14T05:58:19;20.20;45.30
7562;DHT22;3822;48.784;9.174;2023-06-14T06:00:46;20.30;45.30
7562;DHT22;3822;48.784;9.174;2023-06-14T06:03:12;20.40;45.10
7562;DHT22;3822;48.784;9.174;2023-06-14T06:05:39;20.40;45.10
7562;DHT22;3822;48.784;9.174;2023-06-14T06:08:05;20.50;45.00
7562;DHT22;3822;48.784;9.174;2023-06-14T06:10:31;20.60;45.10
7562;DHT22;3822;48.784;9.174;2023-06-14T06:12:58;20.60;44.90
7562;DHT22;3822;48.784;9.174;2023-06-14T06:15:24;20.70;44.90
7562;DHT22;3822;48.784;9.174;2023-06-14T06:17:50;20.80;44.90
7562;DHT22;3822;48.784;9.174;2023-06-14T06:20:17;20.90;44.90
7562;DHT22;3822;48.784;9.174;2023-06-14T06:22:43;20.90;45.40
7562;DHT22;3822;48.784;9.174;2023-06-14T06:25:09;21.00;44.80
7562;DHT22;3822;48.784;9.174;2023-06-14T06:27:38;21.00;44.60
7562;DHT22;3822;48.784;9.174;2023-06-14T06:30:06;21.10;44.30
7562;DHT22;3822;48.784;9.174;2023-06-14T06:32:35;21.10;44.20
7562;DHT22;3822;48.784;9.174;2023-06-14T06:35:01;21.20;44.20
7562;DHT22;3822;48.784;9.174;2023-06-14T06:37:28;21.20;44.30
7562;DHT22;3822;48.784;9.174;2023-06-14T06:39:54;21.20;44.30
7562;DHT22;3822;48.784;9.174;2023-06-14T06:42:20;21.20;44.00
7562;DHT22;3822;48.784;9.174;2023-06-14T06:44:46;21.20;44.00
7562;DHT22;3822;48.784;9.174;2023-06-14T06:47:15;21.20;44.00
7562;DHT22;3822;48.784;9.174;2023-06-14T06:49:41;21.30;44.00
7562;DHT22;3822;48.784;9.174;2023-06-14T06:52:07;21.30;44.10
7562;DHT22;3822;48.784;9.174;2023-06-14T06:54:34;21.40;43.90
7562;DHT22;3822;48.784;9.174;2023-06-14T06:57:00;21.50;43.90
7562;DHT22;3822;48.784;9.174;2023-06-14T06:59:29;21.50;43.70
7562;DHT22;3822;48.784;9.174;2023-06-14T07:01:56;21.60;43.40
7562;DHT22;3822;48.784;9.174;2023-06-14T07:04:22;21.60;43.00
7562;DHT22;3822;48.784;9.174;2023-06-14T07:06:48;21.60;43.10
7562;DHT22;3822;48.784;9.174;2023-06-14T07:09:14;21.70;43.00
7562;DHT22;3822;48.784;9.174;2023-06-14T07:11:42;21.80;43.30
7562;DHT22;3822;48.784;9.174;2023-06-14T07:14:09;21.80;43.20
7562;DHT22;3822;48.784;9.174;2023-06-14T07:16:36;21.80;43.10
7562;DHT22;3822;48.784;9.174;2023-06-14T07:19:05;21.80;43.20
7562;DHT22;3822;48.784;9.174;2023-06-14T07:21:31;21.80;43.10
7562;DHT22;3822;48.784;9.174;2023-06-14T07:23:57;21.90;42.90
7562;DHT22;3822;48.784;9.174;2023-06-14T07:26:24;21.90;42.70
7562;DHT22;3822;48.784;9.174;2023-06-14T07:28:51;22.00;43.30
7562;DHT22;3822;48.784;9.174;2023-06-14T07:31:18;22.00;42.20
7562;DHT22;3822;48.784;9.174;2023-06-14T07:33:45;22.00;42.00
7562;DHT22;3822;48.784;9.174;2023-06-14T07:36:13;22.10;42.00
7562;DHT22;3822;48.784;9.174;2023-06-14T07:38:40;22.20;42.00
7562;DHT22;3822;48.784;9.174;2023-06-14T07:41:07;22.20;41.80
7562;DHT22;3822;48.784;9.174;2023-06-14T07:43:33;22.20;41.60
7562;DHT22;3822;48.784;9.174;2023-06-14T07:46:00;22.30;41.60
7562;DHT22;3822;48.784;9.174;2023-06-14T07:48:26;22.30;41.50
7562;DHT22;3822;48.784;9.174;2023-06-14T07:50:52;22.40;42.00
7562;DHT22;3822;48.784;9.174;2023-06-14T07:53:18;22.40;42.00
7562;DHT22;3822;48.784;9.174;2023-06-14T07:55:45;22.40;41.90
7562;DHT22;3822;48.784;9.174;2023-06-14T07:58:13;22.50;42.20
7562;DHT22;3822;48.784;9.174;2023-06-14T08:00:39;22.50;42.10
7562;DHT22;3822;48.784;9.174;2023-06-14T08:03:05;22.50;42.10
7562;DHT22;3822;48.784;9.174;2023-06-14T08:05:32;22.50;42.10
7562;DHT22;3822;48.784;9.174;2023-06-14T08:07:58;22.60;42.00
7562;DHT22;3822;48.784;9.174;2023-06-14T08:10:25;22.60;42.10
7562;DHT22;3822;48.784;9.174;2023-06-14T08:12:51;22.60;42.70
7562;DHT22;3822;48.784;9.174;2023-06-14T08:15:17;22.50;42.90
7562;DHT22;3822;48.784;9.174;2023-06-14T08:17:44;22.50;42.90
7562;DHT22;3822;48.784;9.174;2023-06-14T08:20:11;22.50;43.00
7562;DHT22;3822;48.784;9.174;2023-06-14T08:22:38;22.60;43.20
7562;DHT22;3822;48.784;9.174;2023-06-14T08:25:05;22.60;43.40
7562;DHT22;3822;48.784;9.174;2023-06-14T08:27:32;22.70;44.00
7562;DHT22;3822;48.784;9.174;2023-06-14T08:29:58;22.70;43.90
7562;DHT22;3822;48.784;9.174;2023-06-14T08:32:25;22.70;44.10
7562;DHT22;3822;48.784;9.174;2023-06-14T08:34:53;22.80;44.00
7562;DHT22;3822;48.784;9.174;2023-06-14T08:37:20;22.80;43.90
7562;DHT22;3822;48.784;9.174;2023-06-14T08:39:46;22.90;44.10
7562;DHT22;3822;48.784;9.174;2023-06-14T08:42:12;23.00;44.00
7562;DHT22;3822;48.784;9.174;2023-06-14T08:44:42;23.00;43.70
7562;DHT22;3822;48.784;9.174;2023-06-14T08:47:11;23.00;43.60
7562;DHT22;3822;48.784;9.174;2023-06-14T08:49:37;23.00;43.70
7562;DHT22;3822;48.784;9.174;2023-06-14T08:52:04;23.00;43.70
7562;DHT22;3822;48.784;9.174;2023-06-14T08:54:31;23.10;43.60
7562;DHT22;3822;48.784;9.174;2023-06-14T08:57:00;23.10;43.70
7562;DHT22;3822;48.784;9.174;2023-06-14T08:59:26;23.20;43.70
7562;DHT22;3822;48.784;9.174;2023-06-14T09:01:53;23.20;43.60
7562;DHT22;3822;48.784;9.174;2023-06-14T09:04:20;23.30;43.50
7562;DHT22;3822;48.784;9.174;2023-06-14T09:06:56;23.30;43.20
7562;DHT22;3822;48.784;9.174;2023-06-14T09:09:22;23.40;43.40
7562;DHT22;3822;48.784;9.174;2023-06-14T09:11:51;23.50;43.70
7562;DHT22;3822;48.784;9.174;2023-06-14T09:14:18;23.50;43.40
7562;DHT22;3822;48.784;9.174;2023-06-14T09:16:45;23.60;43.40
7562;DHT22;3822;48.784;9.174;2023-06-14T09:19:29;23.60;43.40
7562;DHT22;3822;48.784;9.174;2023-06-14T09:21:55;23.60;44.20
7562;DHT22;3822;48.784;9.174;2023-06-14T09:24:23;23.70;43.50
7562;DHT22;3822;48.784;9.174;2023-06-14T09:26:51;23.70;43.00
7562;DHT22;3822;48.784;9.174;2023-06-14T09:29:17;23.80;43.20
7562;DHT22;3822;48.784;9.174;2023-06-14T09:31:47;23.90;43.20
7562;DHT22;3822;48.784;9.174;2023-06-14T09:34:13;23.90;43.20
7562;DHT22;3822;48.784;9.174;2023-06-14T09:36:49;24.00;43.00
7562;DHT22;3822;48.784;9.174;2023-06-14T09:39:16;24.00;42.80
7562;DHT22;3822;48.784;9.174;2023-06-14T09:41:43;24.00;42.60
7562;DHT22;3822;48.784;9.174;2023-06-14T09:44:10;24.00;42.60
7562;DHT22;3822;48.784;9.174;2023-06-14T09:46:37;24.00;42.20
7562;DHT22;3822;48.784;9.174;2023-06-14T09:49:04;24.00;41.90
7562;DHT22;3822;48.784;9.174;2023-06-14T09:51:31;24.10;42.20
7562;DHT22;3822;48.784;9.174;2023-06-14T09:54:01;24.20;42.30
7562;DHT22;3822;48.784;9.174;2023-06-14T09:56:32;24.20;42.30
7562;DHT22;3822;48.784;9.174;2023-06-14T09:59:04;24.20;42.00
7562;DHT22;3822;48.784;9.174;2023-06-14T10:01:31;24.30;42.10
7562;DHT22;3822;48.784;9.174;2023-06-14T10:04:05;24.30;41.20
7562;DHT22;3822;48.784;9.174;2023-06-14T10:06:36;24.30;41.20
7562;DHT22;3822;48.784;9.174;2023-06-14T10:09:07;25.90;42.60
7562;DHT22;3822;48.784;9.174;2023-06-14T10:11:35;24.30;41.70
7562;DHT22;3822;48.784;9.174;2023-06-14T10:14:02;24.40;41.60
7562;DHT22;3822;48.784;9.174;2023-06-14T10:16:34;24.40;41.60
7562;DHT22;3822;48.784;9.174;2023-06-14T10:19:07;24.50;41.40
7562;DHT22;3822;48.784;9.174;2023-06-14T10:24:15;24.50;41.20
7562;DHT22;3822;48.784;9.174;2023-06-14T10:26:51;24.50;41.00
7562;DHT22;3822;48.784;9.174;2023-06-14T10:29:21;24.60;41.10
7562;DHT22;3822;48.784;9.174;2023-06-14T10:31:48;24.60;40.80
7562;DHT22;3822;48.784;9.174;2023-06-14T10:37:07;24.70;40.60
7562;DHT22;3822;48.784;9.174;2023-06-14T10:39:38;24.60;40.00
7562;DHT22;3822;48.784;9.174;2023-06-14T10:42:08;24.60;40.20
7562;DHT22;3822;48.784;9.174;2023-06-14T10:44:39;24.60;40.20
7562;DHT22;3822;48.784;9.174;2023-06-14T10:47:25;24.60;39.80
7562;DHT22;3822;48.784;9.174;2023-06-14T10:52:32;24.70;39.80
7562;DHT22;3822;48.784;9.174;2023-06-14T10:55:02;24.70;39.60
7562;DHT22;3822;48.784;9.174;2023-06-14T11:00:09;24.80;39.20
7562;DHT22;3822;48.784;9.174;2023-06-14T11:08:39;25.10;38.00
7562;DHT22;3822;48.784;9.174;2023-06-14T11:11:18;25.10;37.80
7562;DHT22;3822;48.784;9.174;2023-06-14T11:13:47;25.20;36.90
7562;DHT22;3822;48.784;9.174;2023-06-14T11:16:14;25.30;37.00
7562;DHT22;3822;48.784;9.174;2023-06-14T11:18:41;25.30;36.90
7562;DHT22;3822;48.784;9.174;2023-06-14T11:21:08;25.40;37.00
7562;DHT22;3822;48.784;9.174;2023-06-14T11:23:35;25.50;36.40
7562;DHT22;3822;48.784;9.174;2023-06-14T11:26:02;25.60;36.50
7562;DHT22;3822;48.784;9.174;2023-06-14T11:28:38;25.60;35.20
7562;DHT22;3822;48.784;9.174;2023-06-14T11:31:05;25.60;34.50
7562;DHT22;3822;48.784;9.174;2023-06-14T11:33:34;25.60;34.60
7562;DHT22;3822;48.784;9.174;2023-06-14T11:36:06;25.50;34.70
7562;DHT22;3822;48.784;9.174;2023-06-14T11:38:37;25.50;34.50
7562;DHT22;3822;48.784;9.174;2023-06-14T11:41:03;25.50;34.00
7562;DHT22;3822;48.784;9.174;2023-06-14T11:43:29;25.60;33.70
7562;DHT22;3822;48.784;9.174;2023-06-14T11:45:58;25.60;33.30
7562;DHT22;3822;48.784;9.174;2023-06-14T11:48:41;25.60;33.40
7562;DHT22;3822;48.784;9.174;2023-06-14T11:51:08;25.80;33.90
7562;DHT22;3822;48.784;9.174;2023-06-14T11:53:39;25.90;33.70
7562;DHT22;3822;48.784;9.174;2023-06-14T11:56:06;25.90;33.90
7562;DHT22;3822;48.784;9.174;2023-06-14T11:58:32;26.00;34.00
7562;DHT22;3822;48.784;9.174;2023-06-14T12:01:01;26.00;33.60
7562;DHT22;3822;48.784;9.174;2023-06-14T12:03:29;26.10;33.40
7562;DHT22;3822;48.784;9.174;2023-06-14T12:06:02;26.10;32.90
7562;DHT22;3822;48.784;9.174;2023-06-14T12:08:34;26.10;33.20
7562;DHT22;3822;48.784;9.174;2023-06-14T12:11:06;26.20;34.00
7562;DHT22;3822;48.784;9.174;2023-06-14T12:13:41;26.30;34.10
7562;DHT22;3822;48.784;9.174;2023-06-14T12:16:08;26.30;33.40
7562;DHT22;3822;48.784;9.174;2023-06-14T12:18:38;26.30;33.20
7562;DHT22;3822;48.784;9.174;2023-06-14T12:21:05;26.30;33.60
7562;DHT22;3822;48.784;9.174;2023-06-14T12:23:43;26.30;33.60
7562;DHT22;3822;48.784;9.174;2023-06-14T12:26:09;26.30;33.50
7562;DHT22;3822;48.784;9.174;2023-06-14T12:28:35;26.30;33.50
7562;DHT22;3822;48.784;9.174;2023-06-14T12:31:04;26.40;33.50
7562;DHT22;3822;48.784;9.174;2023-06-14T12:33:30;26.50;33.60
7562;DHT22;3822;48.784;9.174;2023-06-14T12:35:56;26.50;32.90
7562;DHT22;3822;48.784;9.174;2023-06-14T12:38:24;26.60;33.20
7562;DHT22;3822;48.784;9.174;2023-06-14T12:40:50;26.60;33.30
7562;DHT22;3822;48.784;9.174;2023-06-14T12:43:16;26.60;33.20
7562;DHT22;3822;48.784;9.174;2023-06-14T12:45:43;26.70;33.30
7562;DHT22;3822;48.784;9.174;2023-06-14T12:48:09;26.70;33.50
7562;DHT22;3822;48.784;9.174;2023-06-14T12:50:36;26.80;32.80
7562;DHT22;3822;48.784;9.174;2023-06-14T12:53:02;26.80;33.00
7562;DHT22;3822;48.784;9.174;2023-06-14T12:55:28;26.80;33.40
7562;DHT22;3822;48.784;9.174;2023-06-14T12:57:54;26.90;33.20
7562;DHT22;3822;48.784;9.174;2023-06-14T13:00:21;26.90;33.30
7562;DHT22;3822;48.784;9.174;2023-06-14T13:02:51;27.00;32.60
7562;DHT22;3822;48.784;9.174;2023-06-14T13:05:18;27.10;32.60
7562;DHT22;3822;48.784;9.174;2023-06-14T13:07:44;27.10;32.90
7562;DHT22;3822;48.784;9.174;2023-06-14T13:10:13;27.20;32.20
7562;DHT22;3822;48.784;9.174;2023-06-14T13:12:39;27.30;31.60
7562;DHT22;3822;48.784;9.174;2023-06-14T13:15:06;27.30;31.80
7562;DHT22;3822;48.784;9.174;2023-06-14T13:17:38;27.50;32.30
7562;DHT22;3822;48.784;9.174;2023-06-14T13:20:07;27.60;31.60
7562;DHT22;3822;48.784;9.174;2023-06-14T13:22:34;27.80;31.50
7562;DHT22;3822;48.784;9.174;2023-06-14T13:25:01;27.80;31.20
7562;DHT22;3822;48.784;9.174;2023-06-14T13:27:28;27.90;31.40
7562;DHT22;3822;48.784;9.174;2023-06-14T13:29:54;28.00;31.30
7562;DHT22;3822;48.784;9.174;2023-06-14T13:32:21;28.10;31.50
7562;DHT22;3822;48.784;9.174;2023-06-14T13:34:52;28.20;31.10
7562;DHT22;3822;48.784;9.174;2023-06-14T13:37:19;28.20;31.20
7562;DHT22;3822;48.784;9.174;2023-06-14T13:39:45;28.30;31.60
7562;DHT22;3822;48.784;9.174;2023-06-14T13:42:11;28.40;31.70
7562;DHT22;3822;48.784;9.174;2023-06-14T13:44:38;28.50;31.90
7562;DHT22;3822;48.784;9.174;2023-06-14T13:47:04;28.60;31.60
7562;DHT22;3822;48.784;9.174;2023-06-14T13:49:33;28.70;31.00
7562;DHT22;3822;48.784;9.174;2023-06-14T13:52:01;28.80;30.60
7562;DHT22;3822;48.784;9.174;2023-06-14T13:54:28;28.80;30.60
7562;DHT22;3822;48.784;9.174;2023-06-14T13:56:55;28.80;30.50
7562;DHT22;3822;48.784;9.174;2023-06-14T13:59:21;28.80;30.40
7562;DHT22;3822;48.784;9.174;2023-06-14T14:01:48;28.90;30.70
7562;DHT22;3822;48.784;9.174;2023-06-14T14:04:14;29.10;30.90
7562;DHT22;3822;48.784;9.174;2023-06-14T14:06:40;29.20;30.70
7562;DHT22;3822;48.784;9.174;2023-06-14T14:09:09;29.40;30.30
7562;DHT22;3822;48.784;9.174;2023-06-14T14:11:38;29.50;29.60
7562;DHT22;3822;48.784;9.174;2023-06-14T14:14:05;29.50;29.60
7562;DHT22;3822;48.784;9.174;2023-06-14T14:16:31;29.50;30.00
7562;DHT22;3822;48.784;9.174;2023-06-14T14:18:58;29.60;29.50
7562;DHT22;3822;48.784;9.174;2023-06-14T14:21:24;29.50;29.30
7562;DHT22;3822;48.784;9.174;2023-06-14T14:23:50;29.50;29.40
7562;DHT22;3822;48.784;9.174;2023-06-14T14:26:17;29.50;29.60
7562;DHT22;3822;48.784;9.174;2023-06-14T14:28:43;29.40;30.00
7562;DHT22;3822;48.784;9.174;2023-06-14T14:31:10;29.40;30.50
7562;DHT22;3822;48.784;9.174;2023-06-14T14:33:36;29.40;30.70
7562;DHT22;3822;48.784;9.174;2023-06-14T14:36:05;29.30;30.50
7562;DHT22;3822;48.784;9.174;2023-06-14T14:38:32;29.30;30.90
7562;DHT22;3822;48.784;9.174;2023-06-14T14:40:59;29.40;30.60
7562;DHT22;3822;48.784;9.174;2023-06-14T14:43:25;29.40;30.30
7562;DHT22;3822;48.784;9.174;2023-06-14T14:45:52;29.40;30.30
7562;DHT22;3822;48.784;9.174;2023-06-14T14:48:18;29.50;30.30
7562;DHT22;3822;48.784;9.174;2023-06-14T14:50:45;29.50;30.20
7562;DHT22;3822;48.784;9.174;2023-06-14T14:53:14;29.50;30.10
7562;DHT22;3822;48.784;9.174;2023-06-14T14:55:43;29.50;30.40
7562;DHT22;3822;48.784;9.174;2023-06-14T14:58:09;29.50;30.20
7562;DHT22;3822;48.784;9.174;2023-06-14T15:00:35;29.60;29.60
7562;DHT22;3822;48.784;9.174;2023-06-14T15:03:02;29.70;29.70
7562;DHT22;3822;48.784;9.174;2023-06-14T15:05:44;29.80;29.50
7562;DHT22;3822;48.784;9.174;2023-06-14T15:08:13;29.90;29.20
7562;DHT22;3822;48.784;9.174;2023-06-14T15:10:42;30.00;29.20
7562;DHT22;3822;48.784;9.174;2023-06-14T15:13:13;29.40;29.00
7562;DHT22;3822;48.784;9.174;2023-06-14T15:15:41;30.30;29.00
7562;DHT22;3822;48.784;9.174;2023-06-14T15:18:08;30.30;29.10
7562;DHT22;3822;48.784;9.174;2023-06-14T15:20:37;30.20;29.20
7562;DHT22;3822;48.784;9.174;2023-06-14T15:23:07;30.30;29.30
7562;DHT22;3822;48.784;9.174;2023-06-14T15:25:33;30.20;29.20
7562;DHT22;3822;48.784;9.174;2023-06-14T15:28:00;30.30;29.40
7562;DHT22;3822;48.784;9.174;2023-06-14T15:30:27;30.30;29.30
7562;DHT22;3822;48.784;9.174;2023-06-14T15:32:54;30.30;29.30
7562;DHT22;3822;48.784;9.174;2023-06-14T15:35:20;30.40;29.40
7562;DHT22;3822;48.784;9.174;2023-06-14T15:37:47;30.40;29.20
7562;DHT22;3822;48.784;9.174;2023-06-14T15:40:13;30.60;29.50
7562;DHT22;3822;48.784;9.174;2023-06-14T15:42:40;30.60;29.10
7562;DHT22;3822;48.784;9.174;2023-06-14T15:45:06;30.60;29.10
7562;DHT22;3822;48.784;9.174;2023-06-14T15:47:33;30.70;29.30
7562;DHT22;3822;48.784;9.174;2023-06-14T15:50:01;30.60;29.10
7562;DHT22;3822;48.784;9.174;2023-06-14T15:52:30;30.60;29.00
7562;DHT22;3822;48.784;9.174;2023-06-14T15:54:59;30.40;29.00
7562;DHT22;3822;48.784;9.174;2023-06-14T15:57:25;30.30;28.90
7562;DHT22;3822;48.784;9.174;2023-06-14T15:59:52;30.20;28.90
7562;DHT22;3822;48.784;9.174;2023-06-14T16:02:18;30.10;29.10
7562;DHT22;3822;48.784;9.174;2023-06-14T16:04:44;29.90;29.20
7562;DHT22;3822;48.784;9.174;2023-06-14T16:07:11;29.90;29.20
7562;DHT22;3822;48.784;9.174;2023-06-14T16:09:39;30.20;29.50
7562;DHT22;3822;48.784;9.174;2023-06-14T16:12:06;29.70;29.50
7562;DHT22;3822;48.784;9.174;2023-06-14T16:14:32;29.70;29.60
7562;DHT22;3822;48.784;9.174;2023-06-14T16:16:59;29.80;29.60
7562;DHT22;3822;48.784;9.174;2023-06-14T16:19:25;29.90;29.60
7562;DHT22;3822;48.784;9.174;2023-06-14T16:21:51;29.90;29.50
7562;DHT22;3822;48.784;9.174;2023-06-14T16:24:17;29.90;28.90
7562;DHT22;3822;48.784;9.174;2023-06-14T16:26:44;29.90;28.50
7562;DHT22;3822;48.784;9.174;2023-06-14T16:29:10;29.90;28.40